sensor_id;sensor_type;location;lat;lon;timestamp;P1;durP1;ratioP1;P2;durP2;ratioP2
34697;SDS011;61391;50.922;6.928;2023-09-30T00:01:31;7.38;;;3.50;;
34697;SDS011;61391;50.922;6.928;2023-09-30T00:04:04;7.97;;;3.92;;
34697;SDS011;61391;50.922;6.928;2023-09-30T00:06:32;7.60;;;2.53;;
34697;SDS011;61391;50.922;6.928;2023-09-30T00:08:58;6.30;;;3.08;;
34697;SDS011;61391;50.922;6.928;2023-09-30T00:11:29;6.75;;;3.40;;
34697;SDS011;61391;50.922;6.928;2023-09-30T00:13:57;4.32;;;2.58;;
34697;SDS011;61391;50.922;6.928;2023-09-30T00:16:23;4.70;;;2.72;;
34697;SDS011;61391;50.922;6.928;2023-09-30T00:18:50;5.22;;;2.50;;
34697;SDS011;61391;50.922;6.928;2023-09-30T00:21:15;5.28;;;2.65;;
34697;SDS011;61391;50.922;6.928;2023-09-30T00:23:43;4.97;;;2.42;;
34697;SDS011;61391;50.922;6.928;2023-09-30T00:26:08;4.45;;;2.67;;
34697;SDS011;61391;50.922;6.928;2023-09-30T00:28:34;3.80;;;2.92;;
34697;SDS011;61391;50.922;6.928;2023-09-30T00:31:05;5.38;;;2.53;;
34697;SDS011;61391;50.922;6.928;2023-09-30T00:33:38;5.90;;;2.83;;
34697;SDS011;61391;50.922;6.928;2023-09-30T00:39:26;7.63;;;2.70;;
34697;SDS011;61391;50.922;6.928;2023-09-30T00:41:57;9.07;;;2.60;;
34697;SDS011;61391;50.922;6.928;2023-09-30T00:44:38;6.40;;;3.35;;
34697;SDS011;61391;50.922;6.928;2023-09-30T00:47:05;7.93;;;3.05;;
34697;SDS011;61391;50.922;6.928;2023-09-30T00:49:33;6.20;;;2.47;;
34697;SDS011;61391;50.922;6.928;2023-09-30T00:51:59;4.97;;;2.70;;
34697;SDS011;61391;50.922;6.928;2023-09-30T00:54:29;4.60;;;2.50;;
34697;SDS011;61391;50.922;6.928;2023-09-30T01:00:22;6.68;;;3.25;;
34697;SDS011;61391;50.922;6.928;2023-09-30T01:03:02;4.65;;;2.75;;
34697;SDS011;61391;50.922;6.928;2023-09-30T01:05:37;4.22;;;2.63;;
34697;SDS011;61391;50.922;6.928;2023-09-30T01:08:07;4.10;;;2.42;;
34697;SDS011;61391;50.922;6.928;2023-09-30T01:13:56;6.40;;;2.60;;
34697;SDS011;61391;50.922;6.928;2023-09-30T01:16:27;7.93;;;2.92;;
34697;SDS011;61391;50.922;6.928;2023-09-30T01:18:57;4.22;;;2.72;;
34697;SDS011;61391;50.922;6.928;2023-09-30T01:25:07;5.22;;;2.67;;
34697;SDS011;61391;50.922;6.928;2023-09-30T01:27:37;2.92;;;2.47;;
34697;SDS011;61391;50.922;6.928;2023-09-30T01:30:06;7.72;;;2.70;;
34697;SDS011;61391;50.922;6.928;2023-09-30T01:32:36;4.53;;;2.80;;
34697;SDS011;61391;50.922;6.928;2023-09-30T01:35:08;5.15;;;2.78;;
34697;SDS011;61391;50.922;6.928;2023-09-30T01:37:37;5.88;;;2.78;;
34697;SDS011;61391;50.922;6.928;2023-09-30T01:40:09;6.47;;;2.80;;
34697;SDS011;61391;50.922;6.928;2023-09-30T01:45:59;3.47;;;2.50;;
34697;SDS011;61391;50.922;6.928;2023-09-30T01:48:26;6.35;;;3.35;;
34697;SDS011;61391;50.922;6.928;2023-09-30T01:54:14;4.97;;;2.60;;
34697;SDS011;61391;50.922;6.928;2023-09-30T01:56:41;4.97;;;2.65;;
34697;SDS011;61391;50.922;6.928;2023-09-30T01:59:07;4.30;;;2.78;;
34697;SDS011;61391;50.922;6.928;2023-09-30T02:01:32;6.50;;;2.80;;
34697;SDS011;61391;50.922;6.928;2023-09-30T02:03:59;4.30;;;2.90;;
34697;SDS011;61391;50.922;6.928;2023-09-30T02:06:25;5.57;;;2.60;;
34697;SDS011;61391;50.922;6.928;2023-09-30T02:12:14;4.05;;;2.35;;
34697;SDS011;61391;50.922;6.928;2023-09-30T02:14:45;5.22;;;2.65;;
34697;SDS011;61391;50.922;6.928;2023-09-30T02:17:33;4.63;;;2.78;;
34697;SDS011;61391;50.922;6.928;2023-09-30T02:20:00;7.22;;;3.42;;
34697;SDS011;61391;50.922;6.928;2023-09-30T02:25:59;3.65;;;2.50;;
34697;SDS011;61391;50.922;6.928;2023-09-30T02:28:25;7.63;;;3.33;;
34697;SDS011;61391;50.922;6.928;2023-09-30T02:30:51;5.32;;;2.65;;
34697;SDS011;61391;50.922;6.928;2023-09-30T02:40:06;7.10;;;2.70;;
34697;SDS011;61391;50.922;6.928;2023-09-30T02:42:41;8.48;;;3.50;;
34697;SDS011;61391;50.922;6.928;2023-09-30T02:45:26;6.90;;;3.63;;
34697;SDS011;61391;50.922;6.928;2023-09-30T02:47:52;9.25;;;3.97;;
34697;SDS011;61391;50.922;6.928;2023-09-30T02:53:40;6.25;;;3.30;;
34697;SDS011;61391;50.922;6.928;2023-09-30T02:56:07;8.50;;;3.63;;
34697;SDS011;61391;50.922;6.928;2023-09-30T02:58:35;6.53;;;3.60;;
34697;SDS011;61391;50.922;6.928;2023-09-30T03:01:03;7.55;;;3.83;;
34697;SDS011;61391;50.922;6.928;2023-09-30T03:03:29;8.55;;;4.07;;
34697;SDS011;61391;50.922;6.928;2023-09-30T03:08:50;7.97;;;4.13;;
34697;SDS011;61391;50.922;6.928;2023-09-30T03:11:22;5.95;;;3.03;;
34697;SDS011;61391;50.922;6.928;2023-09-30T03:13:49;9.10;;;3.70;;
34697;SDS011;61391;50.922;6.928;2023-09-30T03:16:24;5.53;;;2.78;;
34697;SDS011;61391;50.922;6.928;2023-09-30T03:18:50;5.80;;;3.03;;
34697;SDS011;61391;50.922;6.928;2023-09-30T03:21:17;6.20;;;3.70;;
34697;SDS011;61391;50.922;6.928;2023-09-30T03:23:54;7.85;;;3.47;;
34697;SDS011;61391;50.922;6.928;2023-09-30T03:26:24;6.40;;;3.78;;
34697;SDS011;61391;50.922;6.928;2023-09-30T03:28:56;4.43;;;3.20;;
34697;SDS011;61391;50.922;6.928;2023-09-30T03:31:23;7.22;;;3.38;;
34697;SDS011;61391;50.922;6.928;2023-09-30T03:33:49;8.35;;;3.60;;
34697;SDS011;61391;50.922;6.928;2023-09-30T03:36:19;8.98;;;3.70;;
34697;SDS011;61391;50.922;6.928;2023-09-30T03:38:49;5.82;;;3.33;;
34697;SDS011;61391;50.922;6.928;2023-09-30T03:41:22;6.30;;;3.22;;
34697;SDS011;61391;50.922;6.928;2023-09-30T03:43:51;4.70;;;3.10;;
34697;SDS011;61391;50.922;6.928;2023-09-30T03:46:17;7.90;;;3.50;;
34697;SDS011;61391;50.922;6.928;2023-09-30T03:48:43;4.75;;;3.67;;
34697;SDS011;61391;50.922;6.928;2023-09-30T03:51:16;5.35;;;3.38;;
34697;SDS011;61391;50.922;6.928;2023-09-30T03:57:06;4.87;;;3.53;;
34697;SDS011;61391;50.922;6.928;2023-09-30T03:59:32;6.60;;;3.40;;
34697;SDS011;61391;50.922;6.928;2023-09-30T04:01:59;5.85;;;3.20;;
34697;SDS011;61391;50.922;6.928;2023-09-30T04:04:27;8.07;;;3.92;;
34697;SDS011;61391;50.922;6.928;2023-09-30T04:06:53;5.40;;;2.80;;
34697;SDS011;61391;50.922;6.928;2023-09-30T04:12:42;6.93;;;4.10;;
34697;SDS011;61391;50.922;6.928;2023-09-30T04:15:08;5.95;;;3.85;;
34697;SDS011;61391;50.922;6.928;2023-09-30T04:17:38;8.57;;;4.25;;
34697;SDS011;61391;50.922;6.928;2023-09-30T04:20:07;6.40;;;4.10;;
34697;SDS011;61391;50.922;6.928;2023-09-30T04:22:36;7.38;;;4.28;;
34697;SDS011;61391;50.922;6.928;2023-09-30T04:25:07;9.88;;;4.43;;
34697;SDS011;61391;50.922;6.928;2023-09-30T04:27:36;7.50;;;4.45;;
34697;SDS011;61391;50.922;6.928;2023-09-30T04:33:26;10.00;;;4.28;;
34697;SDS011;61391;50.922;6.928;2023-09-30T04:35:56;7.65;;;4.22;;
34697;SDS011;61391;50.922;6.928;2023-09-30T04:38:22;6.55;;;3.75;;
34697;SDS011;61391;50.922;6.928;2023-09-30T04:40:51;6.93;;;3.83;;
34697;SDS011;61391;50.922;6.928;2023-09-30T04:43:26;7.47;;;4.45;;
34697;SDS011;61391;50.922;6.928;2023-09-30T04:45:55;8.93;;;4.10;;
34697;SDS011;61391;50.922;6.928;2023-09-30T04:48:23;7.10;;;4.70;;
34697;SDS011;61391;50.922;6.928;2023-09-30T04:50:50;6.97;;;4.22;;
34697;SDS011;61391;50.922;6.928;2023-09-30T04:53:17;9.10;;;5.35;;
34697;SDS011;61391;50.922;6.928;2023-09-30T04:55:43;11.05;;;5.05;;
34697;SDS011;61391;50.922;6.928;2023-09-30T04:58:15;5.97;;;4.50;;
34697;SDS011;61391;50.922;6.928;2023-09-30T05:00:50;5.75;;;4.30;;
34697;SDS011;61391;50.922;6.928;2023-09-30T05:03:17;5.75;;;4.20;;
34697;SDS011;61391;50.922;6.928;2023-09-30T05:05:44;7.18;;;4.70;;
34697;SDS011;61391;50.922;6.928;2023-09-30T05:08:10;6.95;;;4.80;;
34697;SDS011;61391;50.922;6.928;2023-09-30T05:10:38;9.10;;;4.75;;
34697;SDS011;61391;50.922;6.928;2023-09-30T05:13:05;10.88;;;4.63;;
34697;SDS011;61391;50.922;6.928;2023-09-30T05:15:31;6.85;;;4.10;;
34697;SDS011;61391;50.922;6.928;2023-09-30T05:17:57;8.10;;;4.72;;
34697;SDS011;61391;50.922;6.928;2023-09-30T05:20:23;6.32;;;3.92;;
34697;SDS011;61391;50.922;6.928;2023-09-30T05:26:13;8.53;;;4.10;;
34697;SDS011;61391;50.922;6.928;2023-09-30T05:28:39;7.70;;;3.80;;
34697;SDS011;61391;50.922;6.928;2023-09-30T05:31:08;7.75;;;3.72;;
34697;SDS011;61391;50.922;6.928;2023-09-30T05:33:40;7.22;;;4.10;;
34697;SDS011;61391;50.922;6.928;2023-09-30T05:36:06;5.65;;;4.22;;
34697;SDS011;61391;50.922;6.928;2023-09-30T05:38:32;6.47;;;4.55;;
34697;SDS011;61391;50.922;6.928;2023-09-30T05:40:59;5.50;;;4.10;;
34697;SDS011;61391;50.922;6.928;2023-09-30T05:46:53;7.03;;;3.60;;
34697;SDS011;61391;50.922;6.928;2023-09-30T05:49:19;5.40;;;3.58;;
34697;SDS011;61391;50.922;6.928;2023-09-30T05:51:47;5.47;;;3.83;;
34697;SDS011;61391;50.922;6.928;2023-09-30T05:54:18;5.63;;;3.78;;
34697;SDS011;61391;50.922;6.928;2023-09-30T05:56:50;7.68;;;3.60;;
34697;SDS011;61391;50.922;6.928;2023-09-30T05:59:20;9.93;;;4.07;;
34697;SDS011;61391;50.922;6.928;2023-09-30T06:01:46;6.90;;;4.20;;
34697;SDS011;61391;50.922;6.928;2023-09-30T06:04:12;7.15;;;3.60;;
34697;SDS011;61391;50.922;6.928;2023-09-30T06:06:38;5.93;;;3.72;;
34697;SDS011;61391;50.922;6.928;2023-09-30T06:09:04;4.80;;;3.80;;
34697;SDS011;61391;50.922;6.928;2023-09-30T06:11:33;6.72;;;4.25;;
34697;SDS011;61391;50.922;6.928;2023-09-30T06:13:59;6.60;;;3.88;;
34697;SDS011;61391;50.922;6.928;2023-09-30T06:16:46;5.97;;;3.65;;
34697;SDS011;61391;50.922;6.928;2023-09-30T06:19:16;8.07;;;4.10;;
34697;SDS011;61391;50.922;6.928;2023-09-30T06:21:47;5.47;;;3.90;;
34697;SDS011;61391;50.922;6.928;2023-09-30T06:24:15;4.78;;;3.38;;
34697;SDS011;61391;50.922;6.928;2023-09-30T06:26:47;6.65;;;3.83;;
34697;SDS011;61391;50.922;6.928;2023-09-30T06:29:14;6.05;;;4.10;;
34697;SDS011;61391;50.922;6.928;2023-09-30T06:31:40;7.72;;;3.95;;
34697;SDS011;61391;50.922;6.928;2023-09-30T06:34:08;5.95;;;3.83;;
34697;SDS011;61391;50.922;6.928;2023-09-30T06:36:39;5.53;;;3.78;;
34697;SDS011;61391;50.922;6.928;2023-09-30T06:42:30;5.78;;;3.67;;
34697;SDS011;61391;50.922;6.928;2023-09-30T06:44:57;6.05;;;3.97;;
34697;SDS011;61391;50.922;6.928;2023-09-30T06:47:23;7.63;;;4.03;;
34697;SDS011;61391;50.922;6.928;2023-09-30T06:53:15;4.35;;;2.90;;
34697;SDS011;61391;50.922;6.928;2023-09-30T06:55:42;4.40;;;3.10;;
34697;SDS011;61391;50.922;6.928;2023-09-30T06:58:10;3.95;;;2.42;;
34697;SDS011;61391;50.922;6.928;2023-09-30T07:00:42;4.05;;;2.88;;
34697;SDS011;61391;50.922;6.928;2023-09-30T07:03:08;4.35;;;2.92;;
34697;SDS011;61391;50.922;6.928;2023-09-30T07:05:35;3.90;;;2.38;;
34697;SDS011;61391;50.922;6.928;2023-09-30T07:08:01;4.50;;;2.80;;
34697;SDS011;61391;50.922;6.928;2023-09-30T07:10:27;4.90;;;3.08;;
34697;SDS011;61391;50.922;6.928;2023-09-30T07:12:54;5.93;;;2.70;;
34697;SDS011;61391;50.922;6.928;2023-09-30T07:18:47;4.03;;;2.40;;
34697;SDS011;61391;50.922;6.928;2023-09-30T07:21:13;4.95;;;3.00;;
34697;SDS011;61391;50.922;6.928;2023-09-30T07:23:48;3.20;;;2.50;;
34697;SDS011;61391;50.922;6.928;2023-09-30T07:26:13;3.55;;;2.67;;
34697;SDS011;61391;50.922;6.928;2023-09-30T07:28:41;3.80;;;3.00;;
34697;SDS011;61391;50.922;6.928;2023-09-30T07:31:34;6.65;;;3.08;;
34697;SDS011;61391;50.922;6.928;2023-09-30T07:34:06;4.70;;;2.95;;
34697;SDS011;61391;50.922;6.928;2023-09-30T07:39:54;6.70;;;3.20;;
34697;SDS011;61391;50.922;6.928;2023-09-30T07:42:20;5.00;;;2.83;;
34697;SDS011;61391;50.922;6.928;2023-09-30T07:44:50;4.82;;;2.97;;
34697;SDS011;61391;50.922;6.928;2023-09-30T07:50:39;5.45;;;3.58;;
34697;SDS011;61391;50.922;6.928;2023-09-30T07:53:08;7.50;;;3.10;;
34697;SDS011;61391;50.922;6.928;2023-09-30T07:55:33;4.38;;;2.78;;
34697;SDS011;61391;50.922;6.928;2023-09-30T07:58:00;5.15;;;3.38;;
34697;SDS011;61391;50.922;6.928;2023-09-30T08:00:29;7.53;;;3.95;;
34697;SDS011;61391;50.922;6.928;2023-09-30T08:02:55;4.05;;;3.28;;
34697;SDS011;61391;50.922;6.928;2023-09-30T08:05:21;5.30;;;3.92;;
34697;SDS011;61391;50.922;6.928;2023-09-30T08:07:47;5.13;;;3.90;;
34697;SDS011;61391;50.922;6.928;2023-09-30T08:10:18;4.88;;;4.30;;
34697;SDS011;61391;50.922;6.928;2023-09-30T08:12:43;6.30;;;4.45;;
34697;SDS011;61391;50.922;6.928;2023-09-30T08:15:14;7.22;;;4.40;;
34697;SDS011;61391;50.922;6.928;2023-09-30T08:17:43;6.57;;;4.75;;
34697;SDS011;61391;50.922;6.928;2023-09-30T08:23:33;4.75;;;3.92;;
34697;SDS011;61391;50.922;6.928;2023-09-30T08:25:58;10.02;;;4.20;;
34697;SDS011;61391;50.922;6.928;2023-09-30T08:28:25;4.63;;;4.10;;
34697;SDS011;61391;50.922;6.928;2023-09-30T08:30:51;5.30;;;4.10;;
34697;SDS011;61391;50.922;6.928;2023-09-30T08:33:25;6.15;;;4.20;;
34697;SDS011;61391;50.922;6.928;2023-09-30T08:35:54;5.10;;;4.18;;
34697;SDS011;61391;50.922;6.928;2023-09-30T08:38:22;4.90;;;4.40;;
34697;SDS011;61391;50.922;6.928;2023-09-30T08:40:51;7.43;;;4.00;;
34697;SDS011;61391;50.922;6.928;2023-09-30T08:46:41;4.40;;;3.88;;
34697;SDS011;61391;50.922;6.928;2023-09-30T08:49:09;5.20;;;4.05;;
34697;SDS011;61391;50.922;6.928;2023-09-30T08:51:36;5.25;;;4.28;;
34697;SDS011;61391;50.922;6.928;2023-09-30T08:54:05;6.90;;;4.47;;
34697;SDS011;61391;50.922;6.928;2023-09-30T08:56:32;5.35;;;4.10;;
34697;SDS011;61391;50.922;6.928;2023-09-30T08:59:01;7.05;;;4.18;;
34697;SDS011;61391;50.922;6.928;2023-09-30T09:01:30;5.83;;;3.80;;
34697;SDS011;61391;50.922;6.928;2023-09-30T09:04:04;5.72;;;3.53;;
34697;SDS011;61391;50.922;6.928;2023-09-30T09:06:51;5.22;;;4.10;;
34697;SDS011;61391;50.922;6.928;2023-09-30T09:09:21;4.70;;;4.07;;
34697;SDS011;61391;50.922;6.928;2023-09-30T09:11:50;6.45;;;4.47;;
34697;SDS011;61391;50.922;6.928;2023-09-30T09:17:48;7.97;;;4.55;;
34697;SDS011;61391;50.922;6.928;2023-09-30T09:23:41;7.13;;;5.45;;
34697;SDS011;61391;50.922;6.928;2023-09-30T09:26:11;7.68;;;4.57;;
34697;SDS011;61391;50.922;6.928;2023-09-30T09:29:07;6.28;;;4.60;;
34697;SDS011;61391;50.922;6.928;2023-09-30T09:31:34;7.22;;;5.03;;
34697;SDS011;61391;50.922;6.928;2023-09-30T09:34:12;5.40;;;4.68;;
34697;SDS011;61391;50.922;6.928;2023-09-30T09:36:40;6.82;;;4.55;;
34697;SDS011;61391;50.922;6.928;2023-09-30T09:39:11;8.90;;;4.93;;
34697;SDS011;61391;50.922;6.928;2023-09-30T09:46:51;5.78;;;4.60;;
34697;SDS011;61391;50.922;6.928;2023-09-30T09:49:20;7.75;;;4.38;;
34697;SDS011;61391;50.922;6.928;2023-09-30T09:51:47;8.65;;;4.82;;
34697;SDS011;61391;50.922;6.928;2023-09-30T09:54:14;7.47;;;5.30;;
34697;SDS011;61391;50.922;6.928;2023-09-30T09:56:42;5.72;;;4.57;;
34697;SDS011;61391;50.922;6.928;2023-09-30T09:59:14;6.32;;;5.15;;
34697;SDS011;61391;50.922;6.928;2023-09-30T10:01:41;6.03;;;4.53;;
34697;SDS011;61391;50.922;6.928;2023-09-30T10:04:08;7.53;;;4.70;;
34697;SDS011;61391;50.922;6.928;2023-09-30T10:06:36;6.63;;;4.40;;
34697;SDS011;61391;50.922;6.928;2023-09-30T10:09:09;5.55;;;4.25;;
34697;SDS011;61391;50.922;6.928;2023-09-30T10:14:43;5.47;;;3.65;;
34697;SDS011;61391;50.922;6.928;2023-09-30T10:17:11;4.80;;;3.25;;
34697;SDS011;61391;50.922;6.928;2023-09-30T10:19:36;5.05;;;3.60;;
34697;SDS011;61391;50.922;6.928;2023-09-30T10:22:34;5.47;;;2.95;;
34697;SDS011;61391;50.922;6.928;2023-09-30T10:25:32;6.97;;;3.92;;
34697;SDS011;61391;50.922;6.928;2023-09-30T10:28:23;7.25;;;4.10;;
34697;SDS011;61391;50.922;6.928;2023-09-30T10:36:31;4.30;;;3.53;;
34697;SDS011;61391;50.922;6.928;2023-09-30T10:39:01;5.10;;;2.78;;
34697;SDS011;61391;50.922;6.928;2023-09-30T10:44:43;4.05;;;3.08;;
34697;SDS011;61391;50.922;6.928;2023-09-30T10:49:47;4.85;;;3.22;;
34697;SDS011;61391;50.922;6.928;2023-09-30T10:52:17;4.13;;;2.50;;
34697;SDS011;61391;50.922;6.928;2023-09-30T10:58:13;3.03;;;2.07;;
34697;SDS011;61391;50.922;6.928;2023-09-30T11:00:39;2.35;;;2.05;;
34697;SDS011;61391;50.922;6.928;2023-09-30T11:03:19;3.05;;;2.00;;
34697;SDS011;61391;50.922;6.928;2023-09-30T11:05:48;5.35;;;2.33;;
34697;SDS011;61391;50.922;6.928;2023-09-30T11:08:16;3.92;;;1.95;;
34697;SDS011;61391;50.922;6.928;2023-09-30T11:10:49;4.75;;;2.45;;
34697;SDS011;61391;50.922;6.928;2023-09-30T11:16:20;3.03;;;1.80;;
34697;SDS011;61391;50.922;6.928;2023-09-30T11:18:54;2.47;;;1.70;;
34697;SDS011;61391;50.922;6.928;2023-09-30T11:21:22;3.67;;;1.60;;
34697;SDS011;61391;50.922;6.928;2023-09-30T11:23:49;2.60;;;1.65;;
34697;SDS011;61391;50.922;6.928;2023-09-30T11:26:17;5.03;;;1.73;;
34697;SDS011;61391;50.922;6.928;2023-09-30T11:29:07;3.22;;;2.22;;
34697;SDS011;61391;50.922;6.928;2023-09-30T11:34:58;4.07;;;1.90;;
34697;SDS011;61391;50.922;6.928;2023-09-30T11:37:34;2.45;;;2.05;;
34697;SDS011;61391;50.922;6.928;2023-09-30T11:40:13;2.95;;;2.10;;
34697;SDS011;61391;50.922;6.928;2023-09-30T11:42:40;3.92;;;1.75;;
34697;SDS011;61391;50.922;6.928;2023-09-30T11:45:22;3.38;;;1.70;;
34697;SDS011;61391;50.922;6.928;2023-09-30T11:47:50;3.58;;;1.85;;
34697;SDS011;61391;50.922;6.928;2023-09-30T11:50:18;3.45;;;1.52;;
34697;SDS011;61391;50.922;6.928;2023-09-30T11:52:49;4.30;;;1.73;;
34697;SDS011;61391;50.922;6.928;2023-09-30T11:55:15;2.15;;;1.50;;
34697;SDS011;61391;50.922;6.928;2023-09-30T11:57:41;3.22;;;1.75;;
34697;SDS011;61391;50.922;6.928;2023-09-30T12:00:07;3.25;;;1.33;;
34697;SDS011;61391;50.922;6.928;2023-09-30T12:02:38;2.75;;;1.48;;
34697;SDS011;61391;50.922;6.928;2023-09-30T12:05:05;3.45;;;1.60;;
34697;SDS011;61391;50.922;6.928;2023-09-30T12:07:37;1.98;;;1.30;;
34697;SDS011;61391;50.922;6.928;2023-09-30T12:10:06;1.77;;;1.35;;
34697;SDS011;61391;50.922;6.928;2023-09-30T12:12:32;2.10;;;1.50;;
34697;SDS011;61391;50.922;6.928;2023-09-30T12:14:57;3.22;;;1.20;;
34697;SDS011;61391;50.922;6.928;2023-09-30T12:17:26;2.03;;;1.23;;
34697;SDS011;61391;50.922;6.928;2023-09-30T12:19:53;2.65;;;1.35;;
34697;SDS011;61391;50.922;6.928;2023-09-30T12:22:19;1.90;;;1.10;;
34697;SDS011;61391;50.922;6.928;2023-09-30T12:24:47;4.13;;;1.55;;
34697;SDS011;61391;50.922;6.928;2023-09-30T12:27:13;3.55;;;1.63;;
34697;SDS011;61391;50.922;6.928;2023-09-30T12:29:39;1.95;;;1.23;;
34697;SDS011;61391;50.922;6.928;2023-09-30T12:32:05;4.07;;;1.65;;
34697;SDS011;61391;50.922;6.928;2023-09-30T12:34:31;2.65;;;1.63;;
34697;SDS011;61391;50.922;6.928;2023-09-30T12:36:57;7.45;;;2.00;;
34697;SDS011;61391;50.922;6.928;2023-09-30T12:39:24;2.53;;;1.52;;
34697;SDS011;61391;50.922;6.928;2023-09-30T12:41:50;2.63;;;1.35;;
34697;SDS011;61391;50.922;6.928;2023-09-30T12:44:16;2.95;;;1.40;;
34697;SDS011;61391;50.922;6.928;2023-09-30T12:46:42;2.22;;;1.30;;
34697;SDS011;61391;50.922;6.928;2023-09-30T12:49:08;2.88;;;1.60;;
34697;SDS011;61391;50.922;6.928;2023-09-30T12:51:34;5.13;;;1.50;;
34697;SDS011;61391;50.922;6.928;2023-09-30T12:54:01;2.78;;;1.67;;
34697;SDS011;61391;50.922;6.928;2023-09-30T12:56:27;2.88;;;1.30;;
34697;SDS011;61391;50.922;6.928;2023-09-30T12:58:56;2.13;;;1.42;;
34697;SDS011;61391;50.922;6.928;2023-09-30T13:01:21;4.00;;;1.40;;
34697;SDS011;61391;50.922;6.928;2023-09-30T13:03:47;3.03;;;1.40;;
34697;SDS011;61391;50.922;6.928;2023-09-30T13:06:13;2.90;;;1.45;;
34697;SDS011;61391;50.922;6.928;2023-09-30T13:08:41;2.92;;;1.70;;
34697;SDS011;61391;50.922;6.928;2023-09-30T13:11:07;2.47;;;1.35;;
34697;SDS011;61391;50.922;6.928;2023-09-30T13:13:33;2.40;;;1.60;;
34697;SDS011;61391;50.922;6.928;2023-09-30T13:19:31;2.95;;;1.30;;
34697;SDS011;61391;50.922;6.928;2023-09-30T13:21:58;3.40;;;1.77;;
34697;SDS011;61391;50.922;6.928;2023-09-30T13:24:23;3.75;;;1.42;;
34697;SDS011;61391;50.922;6.928;2023-09-30T13:26:49;6.22;;;1.65;;
34697;SDS011;61391;50.922;6.928;2023-09-30T13:29:17;2.05;;;1.30;;
34697;SDS011;61391;50.922;6.928;2023-09-30T13:31:43;2.72;;;1.35;;
34697;SDS011;61391;50.922;6.928;2023-09-30T13:34:10;3.03;;;1.23;;
34697;SDS011;61391;50.922;6.928;2023-09-30T13:36:37;2.35;;;1.23;;
34697;SDS011;61391;50.922;6.928;2023-09-30T13:39:03;4.45;;;1.50;;
34697;SDS011;61391;50.922;6.928;2023-09-30T13:41:33;1.08;;;0.90;;
34697;SDS011;61391;50.922;6.928;2023-09-30T13:43:59;2.03;;;1.10;;
34697;SDS011;61391;50.922;6.928;2023-09-30T13:46:25;2.20;;;1.10;;
34697;SDS011;61391;50.922;6.928;2023-09-30T13:48:52;3.25;;;1.23;;
34697;SDS011;61391;50.922;6.928;2023-09-30T13:51:18;2.85;;;1.27;;
34697;SDS011;61391;50.922;6.928;2023-09-30T13:53:44;3.03;;;1.55;;
34697;SDS011;61391;50.922;6.928;2023-09-30T13:59:35;3.60;;;1.10;;
34697;SDS011;61391;50.922;6.928;2023-09-30T14:02:01;2.00;;;1.10;;
34697;SDS011;61391;50.922;6.928;2023-09-30T14:14:38;4.22;;;1.27;;
34697;SDS011;61391;50.922;6.928;2023-09-30T14:20:28;2.03;;;1.20;;
34697;SDS011;61391;50.922;6.928;2023-09-30T14:22:54;3.85;;;1.48;;
34697;SDS011;61391;50.922;6.928;2023-09-30T14:25:21;1.50;;;1.20;;
34697;SDS011;61391;50.922;6.928;2023-09-30T14:27:47;3.28;;;1.10;;
34697;SDS011;61391;50.922;6.928;2023-09-30T14:30:13;4.57;;;1.30;;
34697;SDS011;61391;50.922;6.928;2023-09-30T14:32:40;2.00;;;1.08;;
34697;SDS011;61391;50.922;6.928;2023-09-30T14:35:06;4.22;;;1.42;;
34697;SDS011;61391;50.922;6.928;2023-09-30T14:37:32;1.52;;;1.10;;
34697;SDS011;61391;50.922;6.928;2023-09-30T14:43:31;2.00;;;1.13;;
34697;SDS011;61391;50.922;6.928;2023-09-30T14:46:03;2.60;;;1.30;;
34697;SDS011;61391;50.922;6.928;2023-09-30T14:54:45;3.93;;;1.87;;
34697;SDS011;61391;50.922;6.928;2023-09-30T14:57:20;3.55;;;1.20;;
34697;SDS011;61391;50.922;6.928;2023-09-30T15:00:02;3.28;;;1.25;;
34697;SDS011;61391;50.922;6.928;2023-09-30T15:02:28;1.90;;;0.90;;
34697;SDS011;61391;50.922;6.928;2023-09-30T15:04:54;2.20;;;1.20;;
34697;SDS011;61391;50.922;6.928;2023-09-30T15:07:31;2.60;;;1.48;;
34697;SDS011;61391;50.922;6.928;2023-09-30T15:16:43;3.10;;;1.30;;
34697;SDS011;61391;50.922;6.928;2023-09-30T15:19:15;2.35;;;1.40;;
34697;SDS011;61391;50.922;6.928;2023-09-30T15:25:53;2.95;;;1.30;;
34697;SDS011;61391;50.922;6.928;2023-09-30T15:28:39;2.70;;;1.48;;
34697;SDS011;61391;50.922;6.928;2023-09-30T15:31:04;2.28;;;1.42;;
34697;SDS011;61391;50.922;6.928;2023-09-30T15:33:31;2.80;;;1.20;;
34697;SDS011;61391;50.922;6.928;2023-09-30T15:35:57;2.78;;;1.23;;
34697;SDS011;61391;50.922;6.928;2023-09-30T15:38:23;3.08;;;1.20;;
34697;SDS011;61391;50.922;6.928;2023-09-30T15:40:55;2.47;;;1.70;;
34697;SDS011;61391;50.922;6.928;2023-09-30T15:43:26;3.17;;;1.40;;
34697;SDS011;61391;50.922;6.928;2023-09-30T15:45:52;2.67;;;1.42;;
34697;SDS011;61391;50.922;6.928;2023-09-30T15:48:18;2.90;;;1.50;;
34697;SDS011;61391;50.922;6.928;2023-09-30T15:50:44;2.40;;;1.58;;
34697;SDS011;61391;50.922;6.928;2023-09-30T15:53:11;2.60;;;2.10;;
34697;SDS011;61391;50.922;6.928;2023-09-30T15:55:36;2.60;;;1.70;;
34697;SDS011;61391;50.922;6.928;2023-09-30T15:58:03;4.30;;;1.70;;
34697;SDS011;61391;50.922;6.928;2023-09-30T16:00:29;2.63;;;1.40;;
34697;SDS011;61391;50.922;6.928;2023-09-30T16:02:55;3.78;;;1.48;;
34697;SDS011;61391;50.922;6.928;2023-09-30T16:05:22;3.28;;;1.40;;
34697;SDS011;61391;50.922;6.928;2023-09-30T16:07:48;3.25;;;1.70;;
34697;SDS011;61391;50.922;6.928;2023-09-30T16:10:14;2.47;;;1.48;;
34697;SDS011;61391;50.922;6.928;2023-09-30T16:12:40;3.35;;;1.65;;
34697;SDS011;61391;50.922;6.928;2023-09-30T16:15:06;3.03;;;1.52;;
34697;SDS011;61391;50.922;6.928;2023-09-30T16:17:35;3.83;;;1.83;;
34697;SDS011;61391;50.922;6.928;2023-09-30T16:20:01;3.58;;;1.75;;
34697;SDS011;61391;50.922;6.928;2023-09-30T16:22:29;4.22;;;2.90;;
34697;SDS011;61391;50.922;6.928;2023-09-30T16:24:56;3.63;;;2.35;;
34697;SDS011;61391;50.922;6.928;2023-09-30T16:27:22;4.03;;;1.30;;
34697;SDS011;61391;50.922;6.928;2023-09-30T16:29:48;2.50;;;1.60;;
34697;SDS011;61391;50.922;6.928;2023-09-30T16:32:13;2.33;;;1.77;;
34697;SDS011;61391;50.922;6.928;2023-09-30T16:34:39;1.90;;;1.50;;
34697;SDS011;61391;50.922;6.928;2023-09-30T16:37:05;3.92;;;2.00;;
34697;SDS011;61391;50.922;6.928;2023-09-30T16:39:33;4.82;;;1.85;;
34697;SDS011;61391;50.922;6.928;2023-09-30T16:45:22;3.42;;;2.00;;
34697;SDS011;61391;50.922;6.928;2023-09-30T16:47:47;3.10;;;1.80;;
34697;SDS011;61391;50.922;6.928;2023-09-30T16:50:15;2.58;;;1.92;;
34697;SDS011;61391;50.922;6.928;2023-09-30T16:52:41;5.38;;;2.10;;
34697;SDS011;61391;50.922;6.928;2023-09-30T16:55:08;3.42;;;2.00;;
34697;SDS011;61391;50.922;6.928;2023-09-30T16:57:35;4.07;;;1.85;;
34697;SDS011;61391;50.922;6.928;2023-09-30T17:03:37;3.80;;;1.85;;
34697;SDS011;61391;50.922;6.928;2023-09-30T17:06:16;6.45;;;3.75;;
34697;SDS011;61391;50.922;6.928;2023-09-30T17:09:43;7.18;;;3.58;;
34697;SDS011;61391;50.922;6.928;2023-09-30T17:15:31;5.78;;;3.00;;
34697;SDS011;61391;50.922;6.928;2023-09-30T17:17:59;4.50;;;2.88;;
34697;SDS011;61391;50.922;6.928;2023-09-30T17:20:25;5.85;;;3.83;;
34697;SDS011;61391;50.922;6.928;2023-09-30T17:22:50;4.65;;;2.90;;
34697;SDS011;61391;50.922;6.928;2023-09-30T17:25:16;5.20;;;2.83;;
34697;SDS011;61391;50.922;6.928;2023-09-30T17:27:44;5.28;;;2.60;;
34697;SDS011;61391;50.922;6.928;2023-09-30T17:30:12;3.38;;;2.60;;
34697;SDS011;61391;50.922;6.928;2023-09-30T17:32:38;4.38;;;2.75;;
34697;SDS011;61391;50.922;6.928;2023-09-30T17:38:00;3.83;;;2.88;;
34697;SDS011;61391;50.922;6.928;2023-09-30T17:44:28;4.40;;;2.58;;
34697;SDS011;61391;50.922;6.928;2023-09-30T17:46:53;6.03;;;2.40;;
34697;SDS011;61391;50.922;6.928;2023-09-30T17:49:19;3.75;;;2.30;;
34697;SDS011;61391;50.922;6.928;2023-09-30T17:51:46;5.15;;;2.70;;
34697;SDS011;61391;50.922;6.928;2023-09-30T17:54:13;2.97;;;2.20;;